Time;durP1;ratioP1;P1;durP2;ratioP2;P2;SDS_P1;SDS_P2;PMS_P1;PMS_P2;Temp;Humidity;BMP_temperature;BMP_pressure;BME280_temperature;BME280_humidity;BME280_pressure;Samples;Min_cycle;Max_cycle;Signal;HPM_P1;HPM_P2
2022/05/11 00:01:59;;;;;;;9.18;8.23;;;;;;;;;;12638264;23;20200;-71
2022/05/11 00:07:00;;;;;;;9.68;8.77;;;;;;;;;;12578554;23;20185;-71
2022/05/11 00:12:01;;;;;;;9.32;8.60;;;;;;;;;;12629665;23;20185;-71
2022/05/11 00:17:03;;;;;;;12.85;9.57;;;;;;;;;;12639582;23;20247;-72
2022/05/11 00:22:04;;;;;;;11.35;10.35;;;;;;;;;;12634666;23;20231;-72
2022/05/11 00:27:05;;;;;;;11.13;10.20;;;;;;;;;;12636095;23;20232;-72
2022/05/11 00:32:07;;;;;;;12.50;11.27;;;;;;;;;;12583203;23;20209;-73
2022/05/11 00:37:08;;;;;;;11.52;10.63;;;;;;;;;;12632101;23;20271;-72
2022/05/11 00:42:09;;;;;;;11.38;10.35;;;;;;;;;;12606553;23;20185;-72
2022/05/11 00:47:12;;;;;;;12.90;10.02;;;;;;;;;;12604351;23;20802;-70
2022/05/11 00:52:25;;;;;;;11.27;10.13;;;;;;;;;;12606573;23;20188;-71
2022/05/11 00:57:38;;;;;;;11.48;10.45;;;;;;;;;;12629906;23;20597;-71
2022/05/11 01:02:43;;;;;;;12.80;11.35;;;;;;;;;;12608373;23;20201;-71
2022/05/11 01:07:45;;;;;;;12.32;11.02;;;;;;;;;;12627020;23;20260;-71
2022/05/11 01:12:47;;;;;;;15.02;11.70;;;;;;;;;;12607186;23;20239;-71
2022/05/11 01:17:48;;;;;;;13.65;11.50;;;;;;;;;;12607048;23;20263;-72
2022/05/11 01:22:54;;;;;;;11.80;10.80;;;;;;;;;;12580893;23;20197;-72
2022/05/11 01:28:03;;;;;;;13.45;10.30;;;;;;;;;;12630295;23;20215;-71
2022/05/11 01:33:04;;;;;;;12.23;11.20;;;;;;;;;;12627971;23;20667;-71
2022/05/11 01:38:16;;;;;;;11.02;9.93;;;;;;;;;;12628380;23;20195;-71
2022/05/11 01:43:19;;;;;;;15.05;10.90;;;;;;;;;;12608556;23;20185;-71
2022/05/11 01:48:20;;;;;;;12.57;11.40;;;;;;;;;;12628369;23;20242;-71
2022/05/11 01:53:21;;;;;;;12.10;10.57;;;;;;;;;;12626350;23;20181;-70
2022/05/11 01:58:23;;;;;;;13.32;10.77;;;;;;;;;;12575693;23;20351;-71
2022/05/11 02:03:26;;;;;;;11.23;10.20;;;;;;;;;;12600276;23;20764;-71
2022/05/11 02:08:28;;;;;;;11.65;10.75;;;;;;;;;;12627625;23;20184;-71
2022/05/11 02:13:29;;;;;;;11.93;11.02;;;;;;;;;;12625580;23;20833;-71
2022/05/11 02:18:30;;;;;;;13.13;11.65;;;;;;;;;;12632321;23;20979;-70
2022/05/11 02:23:31;;;;;;;13.07;11.75;;;;;;;;;;12633254;23;20177;-71
2022/05/11 02:28:32;;;;;;;13.32;11.85;;;;;;;;;;12632688;23;20297;-70
2022/05/11 02:33:33;;;;;;;12.43;11.32;;;;;;;;;;12631443;23;20200;-71
2022/05/11 02:38:34;;;;;;;12.23;11.18;;;;;;;;;;12629353;23;20876;-70
2022/05/11 02:43:35;;;;;;;11.98;10.88;;;;;;;;;;12629335;23;20177;-72
2022/05/11 02:48:36;;;;;;;13.98;11.38;;;;;;;;;;12621396;23;20181;-71
2022/05/11 02:53:37;;;;;;;16.10;12.75;;;;;;;;;;12625904;23;20185;-69
2022/05/11 02:58:38;;;;;;;13.48;12.10;;;;;;;;;;12633351;23;20608;-70
2022/05/11 03:03:39;;;;;;;13.25;11.95;;;;;;;;;;12638548;23;20221;-70
2022/05/11 03:08:42;;;;;;;11.52;10.48;;;;;;;;;;12595696;23;20588;-70
2022/05/11 03:13:43;;;;;;;12.68;11.38;;;;;;;;;;12640875;23;20181;-71
2022/05/11 03:18:44;;;;;;;13.57;12.35;;;;;;;;;;12647730;23;20216;-70
2022/05/11 03:23:45;;;;;;;15.23;13.63;;;;;;;;;;12644662;23;20181;-71
2022/05/11 03:28:46;;;;;;;14.02;12.40;;;;;;;;;;12619917;23;20211;-70
2022/05/11 03:39:08;;;;;;;13.52;12.20;;;;;;;;;;12644920;23;20189;-71
2022/05/11 03:44:09;;;;;;;16.63;12.60;;;;;;;;;;12636800;23;20177;-73
2022/05/11 03:49:11;;;;;;;15.77;14.20;;;;;;;;;;12643423;23;20205;-71
2022/05/11 03:54:12;;;;;;;18.45;15.80;;;;;;;;;;12644053;23;20180;-70
2022/05/11 03:59:13;;;;;;;16.55;14.98;;;;;;;;;;12642436;23;20192;-70
2022/05/11 04:04:14;;;;;;;17.15;15.52;;;;;;;;;;12641526;23;20232;-71
2022/05/11 04:09:15;;;;;;;18.25;16.58;;;;;;;;;;12642624;23;20543;-70
2022/05/11 04:14:16;;;;;;;18.65;16.83;;;;;;;;;;12641519;23;20192;-72
2022/05/11 04:19:18;;;;;;;17.67;15.75;;;;;;;;;;12640148;23;20196;-72
2022/05/11 04:24:19;;;;;;;16.85;14.95;;;;;;;;;;12637205;23;20260;-73
2022/05/11 04:29:20;;;;;;;18.15;14.55;;;;;;;;;;12635427;23;20300;-71
2022/05/11 04:34:21;;;;;;;17.50;15.68;;;;;;;;;;12624676;23;20204;-72
2022/05/11 04:39:22;;;;;;;16.05;14.38;;;;;;;;;;12624753;23;20825;-72
2022/05/11 04:44:24;;;;;;;16.08;14.40;;;;;;;;;;12621759;23;20201;-71
2022/05/11 04:49:25;;;;;;;20.25;13.60;;;;;;;;;;12624183;23;20184;-72
2022/05/11 04:54:26;;;;;;;18.30;13.95;;;;;;;;;;12621088;23;20576;-73
2022/05/11 04:59:27;;;;;;;15.25;13.65;;;;;;;;;;12627067;23;20234;-71
2022/05/11 05:04:28;;;;;;;15.60;13.18;;;;;;;;;;12630880;23;20201;-73
2022/05/11 05:09:30;;;;;;;15.10;13.55;;;;;;;;;;12629290;23;20181;-71
2022/05/11 05:14:31;;;;;;;14.77;13.07;;;;;;;;;;12632934;23;20251;-72
2022/05/11 05:19:33;;;;;;;15.15;12.70;;;;;;;;;;12645023;23;20188;-72
2022/05/11 05:24:34;;;;;;;15.13;12.70;;;;;;;;;;12641458;23;20173;-72
2022/05/11 05:34:57;;;;;;;17.90;13.75;;;;;;;;;;12638094;23;20239;-71
2022/05/11 05:39:59;;;;;;;20.15;13.68;;;;;;;;;;12639193;23;20197;-75
2022/05/11 05:45:00;;;;;;;14.10;12.85;;;;;;;;;;12642776;23;20188;-73
2022/05/11 05:50:01;;;;;;;13.95;12.70;;;;;;;;;;12639984;23;20252;-74
2022/05/11 05:55:03;;;;;;;13.50;12.25;;;;;;;;;;12633831;23;20264;-74
2022/05/11 06:00:05;;;;;;;13.02;11.35;;;;;;;;;;12639611;23;20196;-74
2022/05/11 06:05:07;;;;;;;14.02;11.10;;;;;;;;;;12634117;23;20205;-74
2022/05/11 06:10:08;;;;;;;11.73;10.57;;;;;;;;;;12633197;23;20188;-75
2022/05/11 06:15:13;;;;;;;11.73;10.82;;;;;;;;;;12634938;23;20219;-74
2022/05/11 06:20:14;;;;;;;12.38;10.43;;;;;;;;;;12633942;23;20181;-75
2022/05/11 06:25:15;;;;;;;10.98;9.88;;;;;;;;;;12632019;23;20260;-73
2022/05/11 06:30:17;;;;;;;13.80;10.20;;;;;;;;;;12632652;23;20553;-74
2022/05/11 06:35:18;;;;;;;10.05;9.45;;;;;;;;;;12633790;23;20173;-74
2022/05/11 06:40:19;;;;;;;10.63;9.60;;;;;;;;;;12635374;23;20560;-74
2022/05/11 06:45:20;;;;;;;9.82;8.82;;;;;;;;;;12587684;23;20181;-75
2022/05/11 06:50:24;;;;;;;9.48;8.88;;;;;;;;;;12632863;23;20598;-75
2022/05/11 07:00:46;;;;;;;8.30;7.65;;;;;;;;;;12647241;23;20231;-73
2022/05/11 07:05:48;;;;;;;9.98;8.40;;;;;;;;;;12641065;23;20248;-74
2022/05/11 07:16:09;;;;;;;9.88;8.98;;;;;;;;;;12628973;23;20268;-76
2022/05/11 07:21:10;;;;;;;10.02;9.07;;;;;;;;;;12622238;23;20180;-76
2022/05/11 07:26:11;;;;;;;10.60;9.55;;;;;;;;;;12623444;23;20214;-75
2022/05/11 07:31:12;;;;;;;10.55;9.40;;;;;;;;;;12623281;23;20200;-76
2022/05/11 07:36:13;;;;;;;10.38;9.32;;;;;;;;;;12600948;23;20254;-74
2022/05/11 07:41:15;;;;;;;9.60;8.63;;;;;;;;;;12625821;23;20264;-73
2022/05/11 07:46:16;;;;;;;9.75;9.02;;;;;;;;;;12632269;23;20196;-73
2022/05/11 07:51:17;;;;;;;9.57;8.82;;;;;;;;;;12606286;23;20196;-74
2022/05/11 08:01:38;;;;;;;9.60;8.95;;;;;;;;;;12634251;23;20200;-72
2022/05/11 08:06:39;;;;;;;8.75;8.13;;;;;;;;;;12642309;23;20180;-73
2022/05/11 08:11:40;;;;;;;11.35;8.98;;;;;;;;;;12608753;23;20187;-72
2022/05/11 08:16:41;;;;;;;15.07;9.32;;;;;;;;;;12632766;23;20212;-72
2022/05/11 08:21:42;;;;;;;8.25;7.47;;;;;;;;;;12638070;23;20177;-73
2022/05/11 08:26:46;;;;;;;9.13;8.30;;;;;;;;;;12639547;23;20411;-71
2022/05/11 08:37:07;;;;;;;9.02;8.23;;;;;;;;;;12633981;23;20268;-73
2022/05/11 08:42:08;;;;;;;7.72;7.22;;;;;;;;;;12633339;23;20185;-73
2022/05/11 08:47:10;;;;;;;5.57;5.05;;;;;;;;;;12634356;23;21012;-73
2022/05/11 08:52:17;;;;;;;5.35;5.05;;;;;;;;;;12636357;23;20192;-73
2022/05/11 08:57:23;;;;;;;4.53;4.22;;;;;;;;;;12633111;23;20968;-74
2022/05/11 09:02:24;;;;;;;3.45;3.30;;;;;;;;;;12633341;23;20207;-73
2022/05/11 09:07:28;;;;;;;3.53;3.42;;;;;;;;;;12636560;23;20185;-73
2022/05/11 09:12:29;;;;;;;3.53;3.22;;;;;;;;;;12606385;23;20184;-73
2022/05/11 09:17:31;;;;;;;3.80;3.53;;;;;;;;;;12629325;23;20296;-72
2022/05/11 09:22:33;;;;;;;2.58;2.38;;;;;;;;;;12587827;23;20208;-75
2022/05/11 09:27:36;;;;;;;2.70;2.60;;;;;;;;;;12638405;23;20251;-73
2022/05/11 09:32:38;;;;;;;2.83;2.60;;;;;;;;;;12586367;23;20254;-73
2022/05/11 09:37:42;;;;;;;5.60;2.70;;;;;;;;;;12583895;23;20279;-72
2022/05/11 09:42:55;;;;;;;2.97;2.47;;;;;;;;;;12638307;23;20177;-73
2022/05/11 09:48:02;;;;;;;2.90;2.70;;;;;;;;;;12641333;23;20181;-73
2022/05/11 09:53:18;;;;;;;3.25;3.10;;;;;;;;;;12636930;23;20242;-73
2022/05/11 09:58:27;;;;;;;2.60;2.60;;;;;;;;;;12613047;23;20189;-73
2022/05/11 10:03:29;;;;;;;3.03;2.92;;;;;;;;;;12634465;23;20759;-73
2022/05/11 10:08:32;;;;;;;2.85;2.75;;;;;;;;;;12630809;23;20221;-73
2022/05/11 10:13:36;;;;;;;2.80;2.60;;;;;;;;;;12634916;23;20177;-73
2022/05/11 10:24:09;;;;;;;2.58;2.50;;;;;;;;;;12634597;23;20268;-72
2022/05/11 10:29:15;;;;;;;2.50;2.40;;;;;;;;;;12622411;23;20205;-73
2022/05/11 10:34:26;;;;;;;3.63;2.42;;;;;;;;;;12615287;23;20262;-71
2022/05/11 10:39:40;;;;;;;2.40;2.25;;;;;;;;;;12614952;23;21123;-72
2022/05/11 10:44:48;;;;;;;2.53;1.80;;;;;;;;;;12636314;23;20632;-72
2022/05/11 10:49:58;;;;;;;3.80;2.40;;;;;;;;;;12626602;23;20183;-72
2022/05/11 10:55:18;;;;;;;2.40;2.30;;;;;;;;;;12609060;23;20299;-72
2022/05/11 11:00:22;;;;;;;3.67;1.92;;;;;;;;;;12609526;23;20196;-72
2022/05/11 11:07:11;;;;;;;1.98;1.98;;;;;;;;;;12641149;23;20269;-71
2022/05/11 11:11:33;;;;;;;2.20;2.08;;;;;;;;;;12611603;23;20282;-72
2022/05/11 11:16:35;;;;;;;3.10;1.83;;;;;;;;;;12609350;23;20204;-72
2022/05/11 11:21:43;;;;;;;2.20;1.83;;;;;;;;;;12651236;23;20217;-72
2022/05/11 11:26:53;;;;;;;2.67;1.90;;;;;;;;;;12624705;23;20552;-73
2022/05/11 11:31:58;;;;;;;3.60;1.38;;;;;;;;;;12623126;23;20653;-72
2022/05/11 11:37:00;;;;;;;2.58;2.05;;;;;;;;;;12649065;23;20299;-73
2022/05/11 11:42:02;;;;;;;1.65;1.55;;;;;;;;;;12623043;23;20254;-72
2022/05/11 11:47:25;;;;;;;4.22;1.85;;;;;;;;;;12643899;23;20231;-72
2022/05/11 11:52:37;;;;;;;1.77;1.70;;;;;;;;;;12646648;23;20577;-71
2022/05/11 11:57:38;;;;;;;2.15;1.60;;;;;;;;;;12615467;23;20230;-72
2022/05/11 12:02:41;;;;;;;1.85;1.70;;;;;;;;;;12640552;23;20228;-72
2022/05/11 12:18:34;;;;;;;4.68;1.70;;;;;;;;;;12625641;23;20200;-74
2022/05/11 12:23:37;;;;;;;1.90;1.60;;;;;;;;;;12623282;23;20196;-72
2022/05/11 12:28:39;;;;;;;2.17;1.90;;;;;;;;;;12623230;23;20209;-71
2022/05/11 12:33:52;;;;;;;1.90;1.80;;;;;;;;;;12648655;23;20209;-72
2022/05/11 12:38:53;;;;;;;2.97;1.80;;;;;;;;;;12647861;23;20197;-71
2022/05/11 12:44:00;;;;;;;3.53;1.60;;;;;;;;;;12646875;23;20247;-73
2022/05/11 12:49:03;;;;;;;4.47;1.98;;;;;;;;;;12637561;23;20287;-73
2022/05/11 12:54:05;;;;;;;2.58;1.35;;;;;;;;;;12628158;23;20271;-71
2022/05/11 12:59:28;;;;;;;3.60;1.55;;;;;;;;;;12595374;23;20199;-73
2022/05/11 13:04:29;;;;;;;2.92;1.83;;;;;;;;;;12632429;23;20203;-73
2022/05/11 13:09:41;;;;;;;1.80;1.70;;;;;;;;;;12642954;23;20176;-72
2022/05/11 13:14:47;;;;;;;1.88;1.77;;;;;;;;;;12615503;23;20184;-72
2022/05/11 13:19:53;;;;;;;1.88;1.77;;;;;;;;;;12613478;23;20196;-72
2022/05/11 13:24:56;;;;;;;1.67;1.60;;;;;;;;;;12633483;23;20312;-71
2022/05/11 13:30:16;;;;;;;3.03;1.88;;;;;;;;;;12623538;23;20274;-71
2022/05/11 13:35:22;;;;;;;2.85;1.75;;;;;;;;;;12616690;23;20546;-76
2022/05/11 13:40:27;;;;;;;3.05;1.95;;;;;;;;;;12590953;23;20228;-71
2022/05/11 13:45:28;;;;;;;5.18;2.00;;;;;;;;;;12615986;23;20177;-73
2022/05/11 13:50:29;;;;;;;3.13;1.73;;;;;;;;;;12645249;23;20681;-74
2022/05/11 13:55:35;;;;;;;2.65;1.98;;;;;;;;;;12638059;23;20172;-71
2022/05/11 14:00:36;;;;;;;1.85;1.75;;;;;;;;;;12640516;23;20208;-71
2022/05/11 14:05:37;;;;;;;4.38;2.25;;;;;;;;;;12641177;23;20189;-74
2022/05/11 14:10:39;;;;;;;2.38;2.30;;;;;;;;;;12641740;23;20177;-72
2022/05/11 14:15:40;;;;;;;2.42;2.30;;;;;;;;;;12643639;23;20299;-71
2022/05/11 14:20:41;;;;;;;2.60;2.00;;;;;;;;;;12621329;23;20213;-72
2022/05/11 14:25:42;;;;;;;2.22;2.08;;;;;;;;;;12622228;23;20197;-72
2022/05/11 14:30:45;;;;;;;2.13;2.03;;;;;;;;;;12621425;23;20714;-71
2022/05/11 14:35:46;;;;;;;2.50;2.22;;;;;;;;;;12620696;23;20576;-72
2022/05/11 14:40:48;;;;;;;3.88;2.30;;;;;;;;;;12645337;23;20202;-72
2022/05/11 14:45:53;;;;;;;3.17;2.35;;;;;;;;;;12616793;23;20247;-73
2022/05/11 14:50:54;;;;;;;13.52;3.35;;;;;;;;;;12646615;23;20574;-71
2022/05/11 14:55:55;;;;;;;9.10;2.38;;;;;;;;;;12640887;23;20224;-74
2022/05/11 15:06:18;;;;;;;2.50;2.40;;;;;;;;;;12642922;23;20200;-74
2022/05/11 15:16:43;;;;;;;5.32;2.38;;;;;;;;;;12651108;23;20195;-74
2022/05/11 15:21:44;;;;;;;7.18;2.60;;;;;;;;;;12650747;23;20183;-73
2022/05/11 15:26:45;;;;;;;2.22;2.20;;;;;;;;;;12601532;23;20216;-73
2022/05/11 15:31:47;;;;;;;2.53;2.30;;;;;;;;;;12649504;23;20228;-74
2022/05/11 15:36:48;;;;;;;5.20;2.92;;;;;;;;;;12625191;23;20247;-73
2022/05/11 15:41:49;;;;;;;2.95;2.30;;;;;;;;;;12625102;23;20220;-73
2022/05/11 15:46:50;;;;;;;2.30;2.28;;;;;;;;;;12648767;23;20200;-73
2022/05/11 15:51:52;;;;;;;3.05;2.42;;;;;;;;;;12643346;23;20180;-74
2022/05/11 15:56:53;;;;;;;3.92;2.05;;;;;;;;;;12647791;23;20220;-73
2022/05/11 16:01:57;;;;;;;4.10;2.72;;;;;;;;;;12619058;23;20209;-73
2022/05/11 16:06:58;;;;;;;3.13;2.05;;;;;;;;;;12612778;23;20564;-75
2022/05/11 16:11:59;;;;;;;7.85;2.47;;;;;;;;;;12638984;23;20188;-74
2022/05/11 16:19:50;;;;;;;6.55;2.10;;;;;;;;;;12598708;23;20193;-74
2022/05/11 16:22:23;;;;;;;3.78;2.10;;;;;;;;;;12648385;23;20273;-73
2022/05/11 16:27:24;;;;;;;3.60;2.53;;;;;;;;;;12647720;23;20299;-73
2022/05/11 16:32:25;;;;;;;3.38;2.13;;;;;;;;;;12649062;23;20211;-73
2022/05/11 16:37:27;;;;;;;2.22;2.13;;;;;;;;;;12649430;23;20192;-73
2022/05/11 16:42:28;;;;;;;2.97;2.70;;;;;;;;;;12649140;23;20177;-72
2022/05/11 16:47:29;;;;;;;2.45;2.42;;;;;;;;;;12644515;23;20208;-73
2022/05/11 16:52:30;;;;;;;3.35;2.40;;;;;;;;;;12636280;23;20181;-72
2022/05/11 16:57:31;;;;;;;6.45;2.50;;;;;;;;;;12646772;23;20195;-73
2022/05/11 17:02:33;;;;;;;8.18;2.90;;;;;;;;;;12617064;23;20284;-72
2022/05/11 17:07:35;;;;;;;5.65;2.70;;;;;;;;;;12620208;23;20281;-72
2022/05/11 17:12:36;;;;;;;5.07;2.30;;;;;;;;;;12617032;23;20193;-72
2022/05/11 17:17:37;;;;;;;2.60;2.40;;;;;;;;;;12644948;23;20577;-73
2022/05/11 17:22:38;;;;;;;3.28;2.30;;;;;;;;;;12645864;23;20173;-73
2022/05/11 17:27:39;;;;;;;2.70;2.50;;;;;;;;;;12622211;23;20299;-74
2022/05/11 17:32:41;;;;;;;8.65;2.70;;;;;;;;;;12647716;23;20765;-74
2022/05/11 17:37:43;;;;;;;5.40;2.22;;;;;;;;;;12605390;23;20283;-73
2022/05/11 17:42:44;;;;;;;3.63;2.85;;;;;;;;;;12648240;23;20188;-73
2022/05/11 17:47:52;;;;;;;2.63;2.45;;;;;;;;;;10480062;27;20582;-72
2022/05/11 17:52:54;;;;;;;2.95;2.60;;;;;;;;;;10480003;28;21083;-72
2022/05/11 17:57:55;;;;;;;4.55;2.38;;;;;;;;;;10447747;28;20347;-72
2022/05/11 18:02:56;;;;;;;2.40;2.30;;;;;;;;;;10460647;28;20572;-73
2022/05/11 18:07:57;;;;;;;2.78;2.67;;;;;;;;;;10489368;28;20232;-72
2022/05/11 18:13:00;;;;;;;5.10;2.50;;;;;;;;;;10488138;28;20190;-72
2022/05/11 18:18:06;;;;;;;4.65;2.40;;;;;;;;;;10484160;28;20200;-72
2022/05/11 18:23:08;;;;;;;3.88;2.78;;;;;;;;;;10505788;28;20201;-72
2022/05/11 18:28:14;;;;;;;9.68;3.60;;;;;;;;;;10465948;28;20198;-75
2022/05/11 18:33:15;;;;;;;7.13;2.83;;;;;;;;;;10482711;28;20363;-75
2022/05/11 18:38:16;;;;;;;26.80;7.35;;;;;;;;;;10483068;28;20205;-74
2022/05/11 18:43:17;;;;;;;13.05;5.20;;;;;;;;;;10477373;28;20260;-74
2022/05/11 18:48:19;;;;;;;11.23;4.70;;;;;;;;;;10490208;28;20419;-75
2022/05/11 18:53:20;;;;;;;11.88;5.00;;;;;;;;;;10469555;28;21255;-73
2022/05/11 18:58:21;;;;;;;9.55;6.97;;;;;;;;;;10456539;28;20294;-73
2022/05/11 19:03:22;;;;;;;7.25;5.28;;;;;;;;;;10446045;28;20228;-72
2022/05/11 19:08:23;;;;;;;5.32;4.70;;;;;;;;;;10446709;28;20203;-70
2022/05/11 19:13:25;;;;;;;7.13;5.50;;;;;;;;;;10451324;28;20205;-73
2022/05/11 19:18:26;;;;;;;9.43;6.25;;;;;;;;;;10453022;28;20254;-70
2022/05/11 19:23:27;;;;;;;10.98;6.85;;;;;;;;;;10435235;28;20299;-72
2022/05/11 19:28:30;;;;;;;8.57;7.20;;;;;;;;;;10455132;28;20625;-72
2022/05/11 19:33:31;;;;;;;10.38;6.43;;;;;;;;;;10445226;28;20222;-72
2022/05/11 19:38:34;;;;;;;7.80;6.95;;;;;;;;;;10461371;28;20209;-71
2022/05/11 19:43:36;;;;;;;7.53;6.93;;;;;;;;;;10439916;28;20233;-72
2022/05/11 19:48:37;;;;;;;6.82;6.25;;;;;;;;;;10458677;28;20280;-73
2022/05/11 19:53:39;;;;;;;8.23;7.45;;;;;;;;;;10440342;28;20203;-73
2022/05/11 19:58:40;;;;;;;9.63;7.45;;;;;;;;;;10443046;28;20206;-72
2022/05/11 20:03:42;;;;;;;9.27;8.30;;;;;;;;;;10431296;28;20217;-72
2022/05/11 20:08:43;;;;;;;8.43;7.80;;;;;;;;;;10449499;28;20202;-72
2022/05/11 20:13:45;;;;;;;10.57;8.32;;;;;;;;;;10416662;28;20228;-71
2022/05/11 20:18:46;;;;;;;8.82;7.55;;;;;;;;;;10440240;28;20210;-72
2022/05/11 20:23:47;;;;;;;8.68;8.18;;;;;;;;;;10440014;28;20719;-73
2022/05/11 20:28:53;;;;;;;8.68;8.18;;;;;;;;;;10438189;28;20200;-72
2022/05/11 20:39:13;;;;;;;8.25;7.50;;;;;;;;;;10458333;28;20293;-73
2022/05/11 20:44:15;;;;;;;8.50;7.90;;;;;;;;;;10448420;28;20233;-73
2022/05/11 20:49:16;;;;;;;9.80;8.80;;;;;;;;;;10444025;28;20241;-73
2022/05/11 20:54:18;;;;;;;8.93;8.23;;;;;;;;;;10457278;28;20305;-73
2022/05/11 20:59:20;;;;;;;9.30;8.52;;;;;;;;;;10450820;28;20206;-74
2022/05/11 21:04:21;;;;;;;9.85;9.05;;;;;;;;;;10455568;28;20599;-74
2022/05/11 21:09:22;;;;;;;10.05;9.43;;;;;;;;;;10439923;28;20189;-73
2022/05/11 21:14:23;;;;;;;8.65;7.82;;;;;;;;;;10457357;28;20209;-74
2022/05/11 21:19:24;;;;;;;7.88;7.32;;;;;;;;;;10453609;28;20209;-75
2022/05/11 21:24:25;;;;;;;10.10;8.75;;;;;;;;;;10428958;28;20246;-74
2022/05/11 21:29:26;;;;;;;8.85;8.15;;;;;;;;;;10430113;28;20264;-74
2022/05/11 21:34:27;;;;;;;8.48;7.95;;;;;;;;;;10453379;28;20701;-75
2022/05/11 21:39:28;;;;;;;8.48;7.72;;;;;;;;;;10453737;28;20715;-73
2022/05/11 21:44:29;;;;;;;8.43;6.85;;;;;;;;;;10450004;28;20228;-73
2022/05/11 21:49:31;;;;;;;7.25;6.75;;;;;;;;;;10452224;28;20193;-73
2022/05/11 21:54:32;;;;;;;7.28;6.80;;;;;;;;;;10442002;28;20785;-73
2022/05/11 21:59:33;;;;;;;6.82;6.50;;;;;;;;;;10425694;28;20318;-74
2022/05/11 22:04:34;;;;;;;5.93;5.53;;;;;;;;;;10452036;28;20218;-74
2022/05/11 22:09:36;;;;;;;5.70;5.40;;;;;;;;;;10452622;28;20194;-73
2022/05/11 22:14:37;;;;;;;5.20;4.78;;;;;;;;;;10449300;28;20293;-73
2022/05/11 22:19:38;;;;;;;4.82;4.43;;;;;;;;;;10448537;28;20195;-73
2022/05/11 22:24:39;;;;;;;9.98;4.85;;;;;;;;;;10455129;28;20900;-73
2022/05/11 22:29:41;;;;;;;5.40;5.00;;;;;;;;;;10452194;28;20206;-72
2022/05/11 22:34:42;;;;;;;6.97;4.25;;;;;;;;;;10451177;28;20221;-73
2022/05/11 22:39:43;;;;;;;5.57;5.28;;;;;;;;;;10455385;28;20198;-73
2022/05/11 22:44:44;;;;;;;5.22;4.85;;;;;;;;;;10457644;28;20749;-72
2022/05/11 22:49:46;;;;;;;5.63;5.13;;;;;;;;;;10458017;28;20216;-72
2022/05/11 22:54:47;;;;;;;8.35;5.18;;;;;;;;;;10461272;28;20277;-73
2022/05/11 22:59:49;;;;;;;4.75;4.45;;;;;;;;;;10461069;28;20609;-72
2022/05/11 23:04:50;;;;;;;5.05;4.90;;;;;;;;;;10463399;28;20222;-72
2022/05/11 23:09:51;;;;;;;7.57;4.43;;;;;;;;;;10461578;28;20300;-73
2022/05/11 23:14:52;;;;;;;5.55;5.15;;;;;;;;;;10461728;28;20209;-73
2022/05/11 23:19:53;;;;;;;5.10;4.75;;;;;;;;;;10459526;28;20951;-73
2022/05/11 23:24:55;;;;;;;4.65;4.25;;;;;;;;;;10460924;28;20675;-74
2022/05/11 23:29:56;;;;;;;7.80;5.50;;;;;;;;;;10434390;28;20293;-74
2022/05/11 23:34:57;;;;;;;8.43;5.43;;;;;;;;;;10462654;28;20214;-72
2022/05/11 23:39:58;;;;;;;5.57;5.18;;;;;;;;;;10455872;28;20199;-73
2022/05/11 23:44:59;;;;;;;5.50;5.03;;;;;;;;;;10457397;28;20234;-72
2022/05/11 23:50:01;;;;;;;5.95;5.40;;;;;;;;;;10451144;28;20197;-73
2022/05/11 23:55:02;;;;;;;4.65;4.35;;;;;;;;;;10457475;28;20217;-73
